Time;durP1;ratioP1;P1;durP2;ratioP2;P2;SDS_P1;SDS_P2;PMS_P1;PMS_P2;Temp;Humidity;BMP_temperature;BMP_pressure;BME280_temperature;BME280_humidity;BME280_pressure;Samples;Min_cycle;Max_cycle;Signal;HPM_P1;HPM_P2
2022/06/24 00:01:13;;;;;;;;;;;21.60;77.80;;;;;;5091231;27;36705;-62
2022/06/24 00:03:40;;;;;;;;;;;21.60;77.80;;;;;;5089749;28;35881;-62
2022/06/24 00:06:12;;;;;;;;;;;21.60;76.60;;;;;;5090863;27;37707;-62
2022/06/24 00:08:46;;;;;;;;;;;21.60;77.60;;;;;;5090899;27;39146;-62
2022/06/24 00:11:15;;;;;;;;;;;21.60;77.00;;;;;;5089876;28;38154;-62
2022/06/24 00:13:43;;;;;;;;;;;21.60;77.60;;;;;;5089911;27;36468;-62
2022/06/24 00:16:10;;;;;;;;;;;21.60;80.10;;;;;;5090604;27;37974;-63
2022/06/24 00:18:37;;;;;;;;;;;21.50;79.30;;;;;;5091086;27;36638;-62
2022/06/24 00:21:11;;;;;;;;;;;21.50;80.00;;;;;;5090942;27;37132;-62
2022/06/24 00:23:39;;;;;;;;;;;21.50;79.30;;;;;;5089473;28;37157;-61
2022/06/24 00:26:06;;;;;;;;;;;21.50;79.60;;;;;;5090605;27;36610;-62
2022/06/24 00:28:34;;;;;;;;;;;21.50;79.00;;;;;;5091007;27;38068;-62
2022/06/24 00:31:04;;;;;;;;;;;21.50;79.70;;;;;;5090402;27;37123;-62
2022/06/24 00:33:35;;;;;;;;;;;21.50;80.30;;;;;;5091015;27;36565;-62
2022/06/24 00:36:02;;;;;;;;;;;21.40;81.00;;;;;;5090357;27;37580;-62
2022/06/24 00:38:30;;;;;;;;;;;21.30;81.10;;;;;;5090303;27;37849;-62
2022/06/24 00:41:00;;;;;;;;;;;21.30;82.30;;;;;;5090339;27;37673;-62
2022/06/24 00:43:28;;;;;;;;;;;21.20;83.60;;;;;;5089920;27;36446;-62
2022/06/24 00:46:07;;;;;;;;;;;21.20;82.00;;;;;;5089885;28;37815;-62
2022/06/24 00:48:38;;;;;;;;;;;21.20;81.30;;;;;;5090442;27;38014;-62
2022/06/24 00:51:06;;;;;;;;;;;21.20;81.50;;;;;;5087924;27;39113;-62
2022/06/24 00:53:39;;;;;;;;;;;21.20;81.70;;;;;;5089760;27;36277;-62
2022/06/24 00:56:07;;;;;;;;;;;21.20;81.20;;;;;;5089931;27;38116;-61
2022/06/24 00:58:34;;;;;;;;;;;21.20;80.00;;;;;;5088439;27;37454;-62
2022/06/24 01:01:01;;;;;;;;;;;21.20;78.30;;;;;;5089447;27;38514;-62
2022/06/24 01:03:37;;;;;;;;;;;21.20;77.40;;;;;;5088110;27;35711;-62
2022/06/24 01:06:04;;;;;;;;;;;21.20;77.70;;;;;;5090177;27;37740;-62
2022/06/24 01:08:31;;;;;;;;;;;21.30;76.80;;;;;;5090382;27;36601;-62
2022/06/24 01:10:58;;;;;;;;;;;21.40;76.30;;;;;;5089697;27;37676;-63
2022/06/24 01:13:26;;;;;;;;;;;21.40;77.10;;;;;;5090192;27;36427;-62
2022/06/24 01:15:53;;;;;;;;;;;21.40;77.90;;;;;;5090381;27;38641;-62
2022/06/24 01:18:20;;;;;;;;;;;21.40;79.30;;;;;;5089662;27;38884;-63
2022/06/24 01:20:49;;;;;;;;;;;21.40;79.00;;;;;;5090459;27;38324;-62
2022/06/24 01:23:23;;;;;;;;;;;21.40;79.50;;;;;;5090533;27;35849;-62
2022/06/24 01:25:51;;;;;;;;;;;21.30;80.30;;;;;;5088873;27;37591;-61
2022/06/24 01:28:18;;;;;;;;;;;21.30;81.40;;;;;;5089699;27;38059;-62
2022/06/24 01:30:45;;;;;;;;;;;21.20;81.60;;;;;;5091583;27;38057;-62
2022/06/24 01:33:13;;;;;;;;;;;21.10;82.60;;;;;;5093850;27;36534;-62
2022/06/24 01:35:40;;;;;;;;;;;21.10;85.00;;;;;;5092804;27;37852;-62
2022/06/24 01:38:07;;;;;;;;;;;21.00;86.40;;;;;;5093871;27;38686;-62
2022/06/24 01:40:35;;;;;;;;;;;20.90;86.80;;;;;;5093109;27;38733;-62
2022/06/24 01:43:03;;;;;;;;;;;20.80;88.10;;;;;;5092222;28;36554;-63
2022/06/24 01:45:30;;;;;;;;;;;20.80;87.60;;;;;;5092104;27;37253;-62
2022/06/24 01:47:57;;;;;;;;;;;20.70;87.90;;;;;;5093275;27;38546;-62
2022/06/24 01:50:24;;;;;;;;;;;20.70;87.70;;;;;;5093063;27;36155;-62
2022/06/24 01:52:51;;;;;;;;;;;20.70;87.50;;;;;;5092380;27;35963;-63
2022/06/24 01:55:18;;;;;;;;;;;20.60;88.60;;;;;;5093142;27;37550;-62
2022/06/24 01:57:46;;;;;;;;;;;20.60;88.60;;;;;;5092622;27;39685;-63
2022/06/24 02:00:14;;;;;;;;;;;20.60;89.40;;;;;;5093233;28;39547;-62
2022/06/24 02:02:41;;;;;;;;;;;20.60;90.40;;;;;;5093457;28;37625;-62
2022/06/24 02:05:09;;;;;;;;;;;20.60;90.50;;;;;;5091919;27;38097;-62
2022/06/24 02:07:38;;;;;;;;;;;20.50;90.40;;;;;;5093636;27;30805;-63
2022/06/24 02:15:35;;;;;;;;;;;20.50;90.70;;;;;;5093259;28;37317;-62
2022/06/24 02:18:03;;;;;;;;;;;20.50;89.80;;;;;;5091453;27;37638;-62
2022/06/24 02:20:30;;;;;;;;;;;20.50;89.80;;;;;;5092033;27;36038;-62
2022/06/24 02:22:57;;;;;;;;;;;20.40;90.30;;;;;;5093201;27;36723;-62
2022/06/24 02:25:24;;;;;;;;;;;20.30;90.40;;;;;;5090893;27;37544;-62
2022/06/24 02:27:52;;;;;;;;;;;20.30;90.70;;;;;;5092058;27;37976;-62
2022/06/24 02:30:19;;;;;;;;;;;20.30;90.70;;;;;;5092580;27;38260;-62
2022/06/24 02:32:46;;;;;;;;;;;20.30;90.70;;;;;;5092731;27;35077;-62
2022/06/24 02:35:14;;;;;;;;;;;20.30;90.90;;;;;;5092750;27;38680;-62
2022/06/24 02:37:41;;;;;;;;;;;20.30;90.50;;;;;;5092562;27;38698;-62
2022/06/24 02:42:58;;;;;;;;;;;20.30;91.50;;;;;;5092740;28;37470;-62
2022/06/24 02:45:25;;;;;;;;;;;20.30;91.90;;;;;;5091138;27;37547;-62
2022/06/24 02:47:52;;;;;;;;;;;20.30;92.40;;;;;;5092301;27;36208;-62
2022/06/24 02:50:19;;;;;;;;;;;20.20;92.90;;;;;;5092310;27;37054;-61
2022/06/24 02:52:46;;;;;;;;;;;20.20;93.40;;;;;;5091500;27;35419;-62
2022/06/24 02:55:13;;;;;;;;;;;20.20;92.70;;;;;;5091821;27;38121;-62
2022/06/24 02:57:40;;;;;;;;;;;20.20;92.50;;;;;;5091836;27;36786;-62
2022/06/24 03:00:09;;;;;;;;;;;20.20;92.80;;;;;;5091564;27;37631;-62
2022/06/24 03:02:37;;;;;;;;;;;20.10;93.20;;;;;;5091929;28;36115;-62
2022/06/24 03:05:04;;;;;;;;;;;20.20;93.60;;;;;;5090485;27;39500;-62
2022/06/24 03:07:32;;;;;;;;;;;20.10;93.20;;;;;;5092287;27;39111;-62
2022/06/24 03:09:59;;;;;;;;;;;20.10;92.90;;;;;;5092394;27;37554;-61
2022/06/24 03:12:26;;;;;;;;;;;20.10;93.60;;;;;;5091127;27;37078;-62
2022/06/24 03:14:53;;;;;;;;;;;20.10;94.40;;;;;;5091513;27;38209;-62
2022/06/24 03:17:21;;;;;;;;;;;20.10;94.00;;;;;;5090327;27;38891;-62
2022/06/24 03:19:49;;;;;;;;;;;20.10;94.00;;;;;;5091439;27;37771;-62
2022/06/24 03:22:16;;;;;;;;;;;20.10;93.90;;;;;;5091510;27;35147;-62
2022/06/24 03:24:43;;;;;;;;;;;20.10;94.00;;;;;;5090792;28;38345;-62
2022/06/24 03:27:10;;;;;;;;;;;20.10;94.00;;;;;;5092012;27;37593;-62
2022/06/24 03:29:37;;;;;;;;;;;20.00;94.50;;;;;;5091225;27;37153;-62
2022/06/24 03:32:04;;;;;;;;;;;20.00;94.80;;;;;;5090365;27;36089;-62
2022/06/24 03:34:32;;;;;;;;;;;20.00;95.10;;;;;;5090957;27;40949;-62
2022/06/24 03:36:59;;;;;;;;;;;20.00;94.20;;;;;;5091237;27;38597;-62
2022/06/24 03:39:27;;;;;;;;;;;20.10;94.10;;;;;;5091337;27;37183;-63
2022/06/24 03:41:54;;;;;;;;;;;20.20;93.50;;;;;;5091402;27;37339;-62
2022/06/24 03:44:21;;;;;;;;;;;20.20;93.30;;;;;;5090063;27;37067;-62
2022/06/24 03:46:48;;;;;;;;;;;20.20;92.70;;;;;;5090184;27;37488;-62
2022/06/24 03:49:15;;;;;;;;;;;20.30;91.70;;;;;;5091102;27;37859;-62
2022/06/24 03:51:43;;;;;;;;;;;20.40;90.90;;;;;;5091039;27;35056;-62
2022/06/24 03:54:10;;;;;;;;;;;20.50;90.30;;;;;;5091143;27;37862;-62
2022/06/24 03:56:38;;;;;;;;;;;20.50;90.50;;;;;;5091181;27;38143;-62
2022/06/24 03:59:05;;;;;;;;;;;20.50;90.40;;;;;;5091799;27;37668;-61
2022/06/24 04:01:32;;;;;;;;;;;20.50;90.50;;;;;;5089740;27;35980;-62
2022/06/24 04:03:59;;;;;;;;;;;20.50;90.50;;;;;;5089059;27;40195;-62
2022/06/24 04:06:26;;;;;;;;;;;20.50;90.30;;;;;;5091526;27;38583;-61
2022/06/24 04:08:55;;;;;;;;;;;20.50;90.70;;;;;;5091078;27;36131;-62
2022/06/24 04:11:22;;;;;;;;;;;20.50;91.20;;;;;;5090347;27;36466;-62
2022/06/24 04:13:50;;;;;;;;;;;20.60;91.70;;;;;;5089327;28;36093;-62
2022/06/24 04:16:17;;;;;;;;;;;20.60;91.60;;;;;;5089989;27;38560;-62
2022/06/24 04:18:44;;;;;;;;;;;20.80;91.20;;;;;;5089645;27;36612;-62
2022/06/24 04:21:11;;;;;;;;;;;20.70;90.60;;;;;;5090378;27;37843;-62
2022/06/24 04:23:38;;;;;;;;;;;20.80;91.00;;;;;;5087459;27;37536;-62
2022/06/24 04:26:07;;;;;;;;;;;20.80;90.30;;;;;;5089761;27;36285;-62
2022/06/24 04:28:34;;;;;;;;;;;21.00;91.20;;;;;;5088968;27;36962;-62
2022/06/24 04:31:02;;;;;;;;;;;21.10;90.20;;;;;;5090363;27;36000;-61
2022/06/24 04:33:29;;;;;;;;;;;21.20;90.10;;;;;;5089718;27;36615;-62
2022/06/24 04:35:56;;;;;;;;;;;21.30;89.20;;;;;;5090809;27;40591;-62
2022/06/24 04:38:23;;;;;;;;;;;21.30;90.00;;;;;;5090242;27;37448;-62
2022/06/24 04:40:51;;;;;;;;;;;21.40;88.80;;;;;;5090540;27;38180;-62
2022/06/24 04:43:19;;;;;;;;;;;21.50;89.50;;;;;;5089550;27;38591;-62
2022/06/24 04:45:46;;;;;;;;;;;21.50;90.50;;;;;;5088529;28;38633;-62
2022/06/24 04:48:14;;;;;;;;;;;21.50;89.10;;;;;;5089630;27;38511;-62
2022/06/24 04:50:41;;;;;;;;;;;21.50;90.50;;;;;;5090738;27;35753;-62
2022/06/24 04:53:08;;;;;;;;;;;21.60;90.60;;;;;;5090065;27;37790;-62
2022/06/24 04:55:35;;;;;;;;;;;21.70;90.00;;;;;;5088878;27;37484;-62
2022/06/24 04:58:02;;;;;;;;;;;21.70;89.50;;;;;;5088398;27;37369;-62
2022/06/24 05:00:31;;;;;;;;;;;21.70;88.30;;;;;;5089639;27;35057;-62
2022/06/24 05:02:58;;;;;;;;;;;21.70;90.20;;;;;;5090212;27;36659;-62
2022/06/24 05:05:25;;;;;;;;;;;21.70;91.00;;;;;;5090976;27;39252;-62
2022/06/24 05:07:52;;;;;;;;;;;21.60;91.10;;;;;;5094183;27;37086;-62
2022/06/24 05:10:22;;;;;;;;;;;21.60;91.90;;;;;;5092322;27;37216;-62
2022/06/24 05:12:49;;;;;;;;;;;21.50;92.30;;;;;;5092983;27;36535;-62
2022/06/24 05:15:16;;;;;;;;;;;21.50;92.70;;;;;;5092707;27;39767;-62
2022/06/24 05:17:44;;;;;;;;;;;21.50;93.30;;;;;;5093346;27;37064;-62
2022/06/24 05:20:11;;;;;;;;;;;21.40;92.30;;;;;;5091774;27;35138;-62
2022/06/24 05:22:39;;;;;;;;;;;21.40;92.10;;;;;;5094486;27;37446;-62
2022/06/24 05:25:07;;;;;;;;;;;21.40;92.60;;;;;;5091775;27;37930;-62
2022/06/24 05:27:34;;;;;;;;;;;21.40;93.00;;;;;;5093116;27;37084;-62
2022/06/24 05:30:01;;;;;;;;;;;21.40;93.00;;;;;;5091704;27;36930;-61
2022/06/24 05:32:28;;;;;;;;;;;21.30;93.20;;;;;;5093143;27;36721;-62
2022/06/24 05:34:57;;;;;;;;;;;21.30;94.20;;;;;;5093391;27;39328;-62
2022/06/24 05:37:24;;;;;;;;;;;21.30;94.30;;;;;;5093500;27;36550;-62
2022/06/24 05:39:51;;;;;;;;;;;21.30;94.40;;;;;;5092426;27;37065;-62
2022/06/24 05:42:18;;;;;;;;;;;21.30;94.40;;;;;;5093386;28;37760;-62
2022/06/24 05:44:45;;;;;;;;;;;21.20;95.10;;;;;;5091933;28;38350;-62
2022/06/24 05:47:12;;;;;;;;;;;21.30;95.40;;;;;;5093709;27;37456;-62
2022/06/24 05:49:39;;;;;;;;;;;21.40;95.50;;;;;;5091814;27;36932;-62
2022/06/24 05:52:09;;;;;;;;;;;21.50;95.80;;;;;;5093116;27;39322;-62
2022/06/24 05:57:20;;;;;;;;;;;21.70;96.70;;;;;;5093439;27;38358;-62
2022/06/24 05:59:47;;;;;;;;;;;21.60;97.70;;;;;;5092756;27;37018;-62
2022/06/24 06:02:14;;;;;;;;;;;21.70;97.90;;;;;;5092179;27;38535;-61
2022/06/24 06:04:41;;;;;;;;;;;21.60;98.40;;;;;;5090991;27;36619;-62
2022/06/24 06:07:10;;;;;;;;;;;21.60;99.50;;;;;;5093106;27;38368;-62
2022/06/24 06:09:37;;;;;;;;;;;21.60;99.80;;;;;;5092459;27;37805;-62
2022/06/24 06:12:04;;;;;;;;;;;21.60;99.90;;;;;;5092265;27;36620;-62
2022/06/24 06:14:31;;;;;;;;;;;21.60;99.90;;;;;;5092462;27;37439;-62
2022/06/24 06:16:58;;;;;;;;;;;21.50;99.90;;;;;;5090639;27;37470;-62
2022/06/24 06:19:26;;;;;;;;;;;21.50;99.90;;;;;;5092353;27;37519;-62
2022/06/24 06:21:53;;;;;;;;;;;21.50;99.90;;;;;;5085881;27;38035;-62
2022/06/24 06:24:21;;;;;;;;;;;21.40;99.90;;;;;;5087230;27;36717;-62
2022/06/24 06:26:49;;;;;;;;;;;21.40;99.90;;;;;;5086122;27;37073;-61
2022/06/24 06:29:16;;;;;;;;;;;21.30;99.90;;;;;;5085253;27;36425;-61
2022/06/24 06:31:43;;;;;;;;;;;21.30;99.90;;;;;;5087135;27;38773;-61
2022/06/24 06:34:10;;;;;;;;;;;21.20;99.90;;;;;;5087041;27;38200;-62
2022/06/24 06:36:38;;;;;;;;;;;21.10;99.90;;;;;;5086802;27;37028;-62
2022/06/24 06:39:05;;;;;;;;;;;21.10;99.90;;;;;;5085576;27;36712;-62
2022/06/24 06:41:33;;;;;;;;;;;21.00;99.90;;;;;;5086218;27;38482;-61
2022/06/24 06:44:00;;;;;;;;;;;21.00;99.90;;;;;;5086352;27;39096;-62
2022/06/24 06:46:27;;;;;;;;;;;21.00;99.90;;;;;;5082044;27;36599;-61
2022/06/24 06:48:54;;;;;;;;;;;21.00;99.90;;;;;;5086254;27;36256;-61
2022/06/24 06:51:21;;;;;;;;;;;21.00;99.90;;;;;;5087046;27;40667;-62
2022/06/24 06:53:48;;;;;;;;;;;21.00;99.90;;;;;;5087156;27;38293;-62
2022/06/24 06:56:15;;;;;;;;;;;21.00;99.90;;;;;;5086507;27;36083;-61
2022/06/24 06:58:44;;;;;;;;;;;21.00;99.90;;;;;;5086019;27;37296;-61
2022/06/24 07:01:11;;;;;;;;;;;21.00;99.90;;;;;;5087606;28;38707;-62
2022/06/24 07:03:38;;;;;;;;;;;21.00;99.90;;;;;;5086509;27;37783;-61
2022/06/24 07:06:05;;;;;;;;;;;20.90;99.90;;;;;;5086724;27;38857;-62
2022/06/24 07:08:32;;;;;;;;;;;20.90;99.90;;;;;;5086877;27;36195;-61
2022/06/24 07:10:59;;;;;;;;;;;20.90;99.90;;;;;;5087573;27;37102;-61
2022/06/24 07:13:27;;;;;;;;;;;20.90;99.90;;;;;;5086044;28;39443;-61
2022/06/24 07:15:55;;;;;;;;;;;20.80;99.90;;;;;;5086835;27;36022;-61
2022/06/24 07:18:22;;;;;;;;;;;20.80;99.90;;;;;;5086776;27;35135;-62
2022/06/24 07:20:49;;;;;;;;;;;20.80;99.90;;;;;;5086261;27;38686;-62
2022/06/24 07:23:16;;;;;;;;;;;20.80;99.90;;;;;;5087166;27;36639;-62
2022/06/24 07:25:44;;;;;;;;;;;20.80;99.90;;;;;;5086990;27;38397;-61
2022/06/24 07:28:11;;;;;;;;;;;20.80;99.90;;;;;;5086431;27;35025;-61
2022/06/24 07:30:38;;;;;;;;;;;20.80;99.90;;;;;;5086938;27;37918;-61
2022/06/24 07:33:07;;;;;;;;;;;20.70;99.90;;;;;;5087084;27;38622;-61
2022/06/24 07:35:34;;;;;;;;;;;20.70;99.90;;;;;;5088008;27;36927;-61
2022/06/24 07:38:01;;;;;;;;;;;20.70;99.90;;;;;;5087192;27;38195;-61
2022/06/24 07:40:28;;;;;;;;;;;20.80;99.90;;;;;;5087408;27;37679;-61
2022/06/24 07:42:55;;;;;;;;;;;20.80;99.90;;;;;;5087148;27;37350;-61
2022/06/24 07:45:22;;;;;;;;;;;20.70;99.90;;;;;;5086857;27;37087;-61
2022/06/24 07:47:49;;;;;;;;;;;20.70;99.90;;;;;;5086076;27;37233;-62
2022/06/24 07:50:18;;;;;;;;;;;20.80;99.90;;;;;;5086218;27;39047;-61
2022/06/24 07:52:45;;;;;;;;;;;20.70;99.90;;;;;;5087465;27;39335;-60
2022/06/24 07:57:57;;;;;;;;;;;20.80;99.90;;;;;;5087248;28;38006;-54
2022/06/24 08:00:24;;;;;;;;;;;20.70;99.90;;;;;;5085832;27;36253;-53
2022/06/24 08:02:51;;;;;;;;;;;20.70;99.90;;;;;;5085952;27;38288;-53
2022/06/24 08:05:20;;;;;;;;;;;20.70;99.90;;;;;;5085465;28;36124;-53
2022/06/24 08:07:48;;;;;;;;;;;20.70;99.90;;;;;;5086378;27;36193;-53
2022/06/24 08:10:15;;;;;;;;;;;20.70;99.90;;;;;;5085935;27;37874;-53
2022/06/24 08:12:42;;;;;;;;;;;20.70;99.90;;;;;;5085732;28;37771;-53
2022/06/24 08:15:09;;;;;;;;;;;20.70;99.90;;;;;;5085397;27;36442;-52
2022/06/24 08:17:36;;;;;;;;;;;20.70;99.90;;;;;;5085776;27;37031;-53
2022/06/24 08:20:03;;;;;;;;;;;20.70;99.90;;;;;;5085865;27;38256;-52
2022/06/24 08:22:32;;;;;;;;;;;20.70;99.90;;;;;;5085514;27;38224;-54
2022/06/24 08:24:59;;;;;;;;;;;20.70;99.90;;;;;;5086371;27;37836;-52
2022/06/24 08:27:26;;;;;;;;;;;20.70;99.90;;;;;;5085142;27;37339;-52
2022/06/24 08:29:53;;;;;;;;;;;20.70;99.90;;;;;;5086424;27;37930;-53
2022/06/24 08:32:21;;;;;;;;;;;20.70;99.90;;;;;;5085015;27;38085;-54
2022/06/24 08:34:48;;;;;;;;;;;20.80;99.90;;;;;;5085345;27;37881;-52
2022/06/24 08:37:15;;;;;;;;;;;20.80;99.90;;;;;;5085485;27;36683;-52
2022/06/24 08:39:43;;;;;;;;;;;20.80;99.90;;;;;;5085044;27;36439;-51
2022/06/24 08:42:12;;;;;;;;;;;20.80;99.90;;;;;;5084677;27;37979;-53
2022/06/24 08:44:39;;;;;;;;;;;20.80;99.90;;;;;;5081308;27;38015;-53
2022/06/24 08:47:06;;;;;;;;;;;20.80;99.90;;;;;;5085345;27;36274;-53
2022/06/24 08:49:34;;;;;;;;;;;20.80;99.90;;;;;;5085378;27;36483;-53
2022/06/24 08:52:01;;;;;;;;;;;20.80;99.90;;;;;;5086088;27;38817;-53
2022/06/24 08:54:29;;;;;;;;;;;20.80;99.90;;;;;;5086978;28;37854;-54
2022/06/24 08:56:58;;;;;;;;;;;20.80;99.90;;;;;;5086396;27;36319;-53
2022/06/24 08:59:30;;;;;;;;;;;20.80;99.90;;;;;;5087007;27;38384;-53
2022/06/24 09:01:57;;;;;;;;;;;20.80;99.90;;;;;;5087173;27;38841;-52
2022/06/24 09:04:24;;;;;;;;;;;20.80;99.90;;;;;;5087078;27;37231;-53
2022/06/24 09:06:51;;;;;;;;;;;20.80;99.90;;;;;;5086602;27;37076;-53
2022/06/24 09:09:23;;;;;;;;;;;20.80;99.90;;;;;;5086767;27;36508;-54
2022/06/24 09:11:52;;;;;;;;;;;20.80;99.90;;;;;;5084579;28;36953;-53
2022/06/24 09:14:21;;;;;;;;;;;20.70;99.90;;;;;;5085220;27;37397;-54
2022/06/24 09:16:48;;;;;;;;;;;20.70;99.90;;;;;;5086908;27;36695;-54
2022/06/24 09:19:16;;;;;;;;;;;20.70;99.90;;;;;;5087145;27;37555;-53
2022/06/24 09:21:43;;;;;;;;;;;20.70;99.90;;;;;;5086067;27;38542;-54
2022/06/24 09:24:11;;;;;;;;;;;20.70;99.90;;;;;;5085579;28;37248;-54
2022/06/24 09:26:40;;;;;;;;;;;20.60;99.90;;;;;;5086044;27;35847;-53
2022/06/24 09:29:08;;;;;;;;;;;20.60;99.90;;;;;;5085514;27;37584;-54
2022/06/24 09:31:38;;;;;;;;;;;20.60;99.90;;;;;;5086213;27;37715;-53
2022/06/24 09:34:09;;;;;;;;;;;20.60;99.90;;;;;;5082877;27;38403;-53
2022/06/24 09:36:37;;;;;;;;;;;20.60;99.90;;;;;;5085457;27;37331;-54
2022/06/24 09:39:05;;;;;;;;;;;20.60;99.90;;;;;;5085387;27;37032;-54
2022/06/24 09:41:42;;;;;;;;;;;20.50;99.90;;;;;;5085336;27;36638;-53
2022/06/24 09:44:09;;;;;;;;;;;20.50;99.90;;;;;;5084846;28;37360;-53
2022/06/24 09:46:38;;;;;;;;;;;20.50;99.90;;;;;;5085829;27;37750;-52
2022/06/24 09:49:06;;;;;;;;;;;20.50;99.90;;;;;;5083635;28;37727;-53
2022/06/24 09:51:33;;;;;;;;;;;20.50;99.90;;;;;;5086339;27;39177;-53
2022/06/24 09:54:00;;;;;;;;;;;20.50;99.90;;;;;;5089592;27;37083;-53
2022/06/24 09:56:27;;;;;;;;;;;20.50;99.90;;;;;;5089217;27;36430;-53
2022/06/24 10:01:42;;;;;;;;;;;20.40;99.90;;;;;;5089320;28;38822;-52
2022/06/24 10:04:10;;;;;;;;;;;20.40;99.90;;;;;;5088979;27;38153;-52
2022/06/24 10:06:37;;;;;;;;;;;20.40;99.90;;;;;;5088437;27;36989;-54
2022/06/24 10:09:06;;;;;;;;;;;20.30;99.90;;;;;;5088512;27;36583;-54
2022/06/24 10:11:34;;;;;;;;;;;20.40;99.90;;;;;;5087751;27;38592;-53
2022/06/24 10:14:04;;;;;;;;;;;20.30;99.90;;;;;;5086144;27;36077;-53
2022/06/24 10:16:31;;;;;;;;;;;20.30;99.90;;;;;;5088845;27;35464;-54
2022/06/24 10:19:01;;;;;;;;;;;20.30;99.90;;;;;;5089578;27;37358;-52
2022/06/24 10:21:28;;;;;;;;;;;20.30;99.90;;;;;;5088498;27;38222;-54
2022/06/24 10:23:56;;;;;;;;;;;20.30;99.90;;;;;;5089164;27;37874;-53
2022/06/24 10:26:24;;;;;;;;;;;20.20;99.90;;;;;;5088981;27;36478;-53
2022/06/24 10:29:18;;;;;;;;;;;20.20;99.90;;;;;;5088560;27;37619;-53
2022/06/24 10:32:02;;;;;;;;;;;20.20;99.90;;;;;;5087999;27;36973;-54
2022/06/24 10:34:37;;;;;;;;;;;20.10;99.90;;;;;;5088144;27;35474;-54
2022/06/24 10:37:06;;;;;;;;;;;20.10;99.90;;;;;;5089102;27;34265;-54
2022/06/24 10:39:34;;;;;;;;;;;20.10;99.90;;;;;;5088579;27;37404;-54
2022/06/24 10:42:02;;;;;;;;;;;20.00;99.90;;;;;;5088985;27;36880;-53
2022/06/24 10:44:30;;;;;;;;;;;20.00;99.90;;;;;;5089163;28;36589;-53
2022/06/24 10:47:16;;;;;;;;;;;20.00;99.90;;;;;;5088406;27;36241;-54
2022/06/24 10:50:02;;;;;;;;;;;19.90;99.90;;;;;;5087269;27;38540;-52
2022/06/24 10:52:32;;;;;;;;;;;19.90;99.90;;;;;;5088155;27;37667;-54
2022/06/24 10:55:14;;;;;;;;;;;19.80;99.90;;;;;;5085232;27;37812;-53
2022/06/24 10:57:41;;;;;;;;;;;19.80;99.90;;;;;;5086155;27;35950;-53
2022/06/24 11:00:10;;;;;;;;;;;19.80;99.90;;;;;;5087065;27;38684;-53
2022/06/24 11:02:38;;;;;;;;;;;19.70;99.90;;;;;;5087550;27;36806;-53
2022/06/24 11:05:10;;;;;;;;;;;19.70;99.90;;;;;;5079866;27;37657;-53
2022/06/24 11:07:45;;;;;;;;;;;19.70;99.90;;;;;;5082718;27;37489;-53
2022/06/24 11:10:16;;;;;;;;;;;19.60;99.90;;;;;;5084895;27;39705;-53
2022/06/24 11:12:47;;;;;;;;;;;19.60;99.90;;;;;;5081371;27;39026;-53
2022/06/24 11:15:15;;;;;;;;;;;19.60;99.90;;;;;;5083182;27;36808;-54
2022/06/24 11:17:42;;;;;;;;;;;19.50;99.90;;;;;;5085792;27;35180;-53
2022/06/24 11:20:10;;;;;;;;;;;19.50;99.90;;;;;;5085307;27;38686;-53
2022/06/24 11:22:42;;;;;;;;;;;19.50;99.90;;;;;;5084464;27;39500;-51
2022/06/24 11:25:11;;;;;;;;;;;19.40;99.90;;;;;;5085503;28;38357;-54
2022/06/24 11:27:38;;;;;;;;;;;19.40;99.90;;;;;;5083566;27;36472;-55
2022/06/24 11:30:06;;;;;;;;;;;19.30;99.90;;;;;;5085513;28;37620;-53
2022/06/24 11:32:50;;;;;;;;;;;19.30;99.90;;;;;;5085620;27;39779;-53
2022/06/24 11:35:18;;;;;;;;;;;19.30;99.90;;;;;;5084429;28;36930;-53
2022/06/24 11:37:45;;;;;;;;;;;19.30;99.90;;;;;;5084952;27;37918;-54
2022/06/24 11:40:20;;;;;;;;;;;19.30;99.90;;;;;;5084967;27;37622;-54
2022/06/24 11:42:47;;;;;;;;;;;19.30;99.90;;;;;;5083144;27;37722;-54
2022/06/24 11:45:14;;;;;;;;;;;19.30;99.90;;;;;;5081962;27;37133;-52
2022/06/24 11:47:47;;;;;;;;;;;19.30;99.90;;;;;;5085171;27;36178;-54
2022/06/24 11:50:20;;;;;;;;;;;19.30;99.90;;;;;;5083873;27;38632;-54
2022/06/24 11:52:48;;;;;;;;;;;19.30;99.90;;;;;;5084319;27;38587;-54
2022/06/24 11:55:27;;;;;;;;;;;19.30;99.90;;;;;;5085128;27;40226;-54
2022/06/24 11:57:54;;;;;;;;;;;19.30;99.90;;;;;;5084687;27;37029;-54
2022/06/24 12:00:22;;;;;;;;;;;19.30;99.90;;;;;;5084882;27;37598;-54
2022/06/24 12:02:50;;;;;;;;;;;19.30;99.90;;;;;;5085320;27;40090;-54
2022/06/24 12:05:18;;;;;;;;;;;19.20;99.90;;;;;;5084480;27;37979;-54
2022/06/24 12:07:45;;;;;;;;;;;19.30;99.90;;;;;;5083805;27;36123;-52
2022/06/24 12:10:13;;;;;;;;;;;19.40;99.90;;;;;;5084496;27;37357;-53
2022/06/24 12:12:55;;;;;;;;;;;19.40;99.90;;;;;;5083752;27;38892;-53
2022/06/24 12:15:24;;;;;;;;;;;19.40;99.90;;;;;;5082590;27;36790;-53
2022/06/24 12:17:52;;;;;;;;;;;19.40;99.90;;;;;;5083717;27;35069;-53
2022/06/24 12:20:22;;;;;;;;;;;19.40;99.90;;;;;;5082726;27;38114;-51
2022/06/24 12:23:03;;;;;;;;;;;19.40;99.90;;;;;;5083966;27;37525;-53
2022/06/24 12:25:39;;;;;;;;;;;19.40;99.90;;;;;;5083950;28;37448;-53
2022/06/24 12:28:13;;;;;;;;;;;19.50;99.90;;;;;;5083156;27;35126;-54
2022/06/24 12:30:40;;;;;;;;;;;19.50;99.90;;;;;;5083261;28;36499;-53
2022/06/24 12:33:11;;;;;;;;;;;19.50;99.90;;;;;;5082924;27;38610;-54
2022/06/24 12:35:39;;;;;;;;;;;19.50;99.90;;;;;;5082264;27;37900;-54
2022/06/24 12:38:10;;;;;;;;;;;19.60;99.90;;;;;;5081809;27;38148;-53
2022/06/24 12:40:37;;;;;;;;;;;19.70;99.90;;;;;;5083760;27;37607;-54
2022/06/24 12:43:05;;;;;;;;;;;19.70;99.90;;;;;;5084074;27;38101;-54
2022/06/24 12:45:36;;;;;;;;;;;19.80;99.90;;;;;;5084218;27;37819;-54
2022/06/24 12:50:56;;;;;;;;;;;19.90;99.90;;;;;;5083859;28;39567;-53
2022/06/24 12:53:23;;;;;;;;;;;20.00;99.90;;;;;;5083135;27;38907;-53
2022/06/24 12:55:51;;;;;;;;;;;20.00;99.90;;;;;;5084602;27;38962;-53
2022/06/24 12:58:18;;;;;;;;;;;20.00;99.90;;;;;;5083066;27;36218;-53
2022/06/24 13:00:46;;;;;;;;;;;20.10;99.90;;;;;;5083550;27;38296;-53
2022/06/24 13:03:16;;;;;;;;;;;20.10;99.90;;;;;;5083130;27;36664;-54
2022/06/24 13:05:43;;;;;;;;;;;20.20;99.90;;;;;;5083472;27;38686;-53
2022/06/24 13:08:10;;;;;;;;;;;20.20;99.90;;;;;;5082751;27;36977;-53
2022/06/24 13:10:37;;;;;;;;;;;20.30;99.90;;;;;;5082648;27;38368;-52
2022/06/24 13:13:04;;;;;;;;;;;20.30;99.90;;;;;;5081543;27;37733;-54
2022/06/24 13:15:32;;;;;;;;;;;20.40;99.90;;;;;;5083006;27;38314;-53
2022/06/24 13:18:00;;;;;;;;;;;20.50;99.90;;;;;;5079238;27;35627;-53
2022/06/24 13:20:27;;;;;;;;;;;20.50;99.90;;;;;;5082647;27;39073;-54
2022/06/24 13:22:56;;;;;;;;;;;20.50;99.90;;;;;;5082473;27;38344;-53
2022/06/24 13:25:24;;;;;;;;;;;20.60;99.90;;;;;;5082497;27;36642;-53
2022/06/24 13:27:51;;;;;;;;;;;20.60;99.90;;;;;;5086579;27;37128;-54
2022/06/24 13:30:20;;;;;;;;;;;20.70;99.90;;;;;;5087699;28;38558;-54
2022/06/24 13:32:47;;;;;;;;;;;20.70;99.90;;;;;;5086036;28;36888;-54
2022/06/24 13:35:16;;;;;;;;;;;20.80;99.90;;;;;;5085921;27;38308;-54
2022/06/24 13:37:43;;;;;;;;;;;20.80;99.90;;;;;;5085492;27;37428;-54
2022/06/24 13:40:10;;;;;;;;;;;20.80;99.90;;;;;;5084384;27;38212;-52
2022/06/24 13:42:37;;;;;;;;;;;20.80;99.90;;;;;;5084936;28;37441;-54
2022/06/24 13:45:05;;;;;;;;;;;20.90;99.90;;;;;;5085450;27;37492;-54
2022/06/24 13:47:32;;;;;;;;;;;20.80;99.90;;;;;;5086310;27;36816;-54
2022/06/24 13:49:59;;;;;;;;;;;20.90;99.90;;;;;;5085473;27;37708;-54
2022/06/24 13:52:28;;;;;;;;;;;20.90;99.90;;;;;;5086792;27;37780;-53
2022/06/24 13:54:55;;;;;;;;;;;20.90;99.90;;;;;;5085995;27;37860;-54
2022/06/24 13:57:23;;;;;;;;;;;20.90;99.90;;;;;;5084777;27;36432;-53
2022/06/24 13:59:51;;;;;;;;;;;21.00;99.90;;;;;;5085637;27;38398;-53
2022/06/24 14:02:18;;;;;;;;;;;21.00;99.90;;;;;;5086341;27;37685;-53
2022/06/24 14:04:45;;;;;;;;;;;21.00;99.90;;;;;;5086157;27;38479;-54
2022/06/24 14:07:12;;;;;;;;;;;21.00;99.90;;;;;;5086357;27;37090;-54
2022/06/24 14:09:41;;;;;;;;;;;21.00;99.90;;;;;;5085879;28;37764;-53
2022/06/24 14:12:09;;;;;;;;;;;21.00;99.90;;;;;;5087548;27;37441;-53
2022/06/24 14:14:37;;;;;;;;;;;21.00;99.90;;;;;;5086339;28;36498;-54
2022/06/24 14:17:05;;;;;;;;;;;21.00;99.90;;;;;;5086888;27;36015;-53
2022/06/24 14:19:32;;;;;;;;;;;21.10;99.90;;;;;;5085626;27;37553;-54
2022/06/24 14:21:59;;;;;;;;;;;21.20;99.90;;;;;;5086472;28;36934;-53
2022/06/24 14:24:31;;;;;;;;;;;21.20;99.90;;;;;;5086325;27;37726;-53
2022/06/24 14:27:00;;;;;;;;;;;21.20;99.90;;;;;;5086513;27;36880;-52
2022/06/24 14:29:27;;;;;;;;;;;21.20;99.90;;;;;;5085857;27;37522;-54
2022/06/24 14:31:54;;;;;;;;;;;21.20;99.90;;;;;;5086793;27;38749;-53
2022/06/24 14:34:21;;;;;;;;;;;21.20;99.90;;;;;;5085263;28;35909;-54
2022/06/24 14:36:48;;;;;;;;;;;21.20;99.90;;;;;;5085202;27;36147;-53
2022/06/24 14:42:01;;;;;;;;;;;21.30;99.90;;;;;;5086947;28;39125;-54
2022/06/24 14:44:28;;;;;;;;;;;21.20;99.90;;;;;;5085768;27;38053;-54